sensor_id;sensor_type;location;lat;lon;timestamp;P1;durP1;ratioP1;P2;durP2;ratioP2
72728;SDS011;60843;52.062;4.508;2023-07-16T00:00:03;6.70;;;1.60;;
72728;SDS011;60843;52.062;4.508;2023-07-16T00:02:29;5.88;;;1.80;;
72728;SDS011;60843;52.062;4.508;2023-07-16T00:04:55;9.40;;;1.60;;
72728;SDS011;60843;52.062;4.508;2023-07-16T00:07:20;5.27;;;1.43;;
72728;SDS011;60843;52.062;4.508;2023-07-16T00:09:46;5.78;;;1.75;;
72728;SDS011;60843;52.062;4.508;2023-07-16T00:12:11;8.20;;;1.65;;
72728;SDS011;60843;52.062;4.508;2023-07-16T00:14:36;6.72;;;1.83;;
72728;SDS011;60843;52.062;4.508;2023-07-16T00:17:02;4.68;;;1.92;;
72728;SDS011;60843;52.062;4.508;2023-07-16T00:19:28;5.68;;;2.00;;
72728;SDS011;60843;52.062;4.508;2023-07-16T00:21:53;6.75;;;2.30;;
72728;SDS011;60843;52.062;4.508;2023-07-16T00:24:18;8.45;;;2.35;;
72728;SDS011;60843;52.062;4.508;2023-07-16T00:26:44;6.85;;;2.08;;
72728;SDS011;60843;52.062;4.508;2023-07-16T00:29:09;7.97;;;2.03;;
72728;SDS011;60843;52.062;4.508;2023-07-16T00:31:35;7.43;;;2.15;;
72728;SDS011;60843;52.062;4.508;2023-07-16T00:34:00;10.07;;;2.67;;
72728;SDS011;60843;52.062;4.508;2023-07-16T00:36:26;7.40;;;2.25;;
72728;SDS011;60843;52.062;4.508;2023-07-16T00:38:53;11.15;;;2.55;;
72728;SDS011;60843;52.062;4.508;2023-07-16T00:41:18;8.38;;;2.10;;
72728;SDS011;60843;52.062;4.508;2023-07-16T00:43:43;7.88;;;1.67;;
72728;SDS011;60843;52.062;4.508;2023-07-16T00:46:09;6.90;;;2.30;;
72728;SDS011;60843;52.062;4.508;2023-07-16T00:48:35;6.45;;;2.05;;
72728;SDS011;60843;52.062;4.508;2023-07-16T00:51:01;13.02;;;2.22;;
72728;SDS011;60843;52.062;4.508;2023-07-16T00:53:27;7.93;;;2.25;;
72728;SDS011;60843;52.062;4.508;2023-07-16T00:55:58;6.25;;;1.73;;
72728;SDS011;60843;52.062;4.508;2023-07-16T00:58:23;11.02;;;2.30;;
72728;SDS011;60843;52.062;4.508;2023-07-16T01:00:49;7.03;;;2.03;;
72728;SDS011;60843;52.062;4.508;2023-07-16T01:03:15;8.13;;;2.00;;
72728;SDS011;60843;52.062;4.508;2023-07-16T01:08:32;7.57;;;2.50;;
72728;SDS011;60843;52.062;4.508;2023-07-16T01:11:01;8.02;;;2.03;;
72728;SDS011;60843;52.062;4.508;2023-07-16T01:13:27;5.90;;;1.85;;
72728;SDS011;60843;52.062;4.508;2023-07-16T01:15:53;4.68;;;2.22;;
72728;SDS011;60843;52.062;4.508;2023-07-16T01:18:18;8.05;;;2.45;;
72728;SDS011;60843;52.062;4.508;2023-07-16T01:20:44;6.95;;;2.55;;
72728;SDS011;60843;52.062;4.508;2023-07-16T01:26:00;15.23;;;2.60;;
72728;SDS011;60843;52.062;4.508;2023-07-16T01:31:37;8.27;;;2.83;;
72728;SDS011;60843;52.062;4.508;2023-07-16T01:34:03;7.63;;;2.58;;
72728;SDS011;60843;52.062;4.508;2023-07-16T01:36:29;7.50;;;2.15;;
72728;SDS011;60843;52.062;4.508;2023-07-16T01:38:55;11.15;;;3.03;;
72728;SDS011;60843;52.062;4.508;2023-07-16T01:41:21;8.77;;;2.80;;
72728;SDS011;60843;52.062;4.508;2023-07-16T01:43:46;8.87;;;3.00;;
72728;SDS011;60843;52.062;4.508;2023-07-16T01:46:12;8.88;;;2.55;;
72728;SDS011;60843;52.062;4.508;2023-07-16T01:48:38;10.30;;;3.08;;
72728;SDS011;60843;52.062;4.508;2023-07-16T01:51:04;8.95;;;2.53;;
72728;SDS011;60843;52.062;4.508;2023-07-16T01:53:30;10.10;;;2.65;;
72728;SDS011;60843;52.062;4.508;2023-07-16T01:55:56;6.32;;;2.45;;
72728;SDS011;60843;52.062;4.508;2023-07-16T01:58:22;8.20;;;3.00;;
72728;SDS011;60843;52.062;4.508;2023-07-16T02:00:49;8.32;;;2.95;;
72728;SDS011;60843;52.062;4.508;2023-07-16T02:03:15;11.32;;;3.38;;
72728;SDS011;60843;52.062;4.508;2023-07-16T02:05:40;7.23;;;3.30;;
72728;SDS011;60843;52.062;4.508;2023-07-16T02:08:06;7.15;;;3.00;;
72728;SDS011;60843;52.062;4.508;2023-07-16T02:10:31;9.98;;;3.45;;
72728;SDS011;60843;52.062;4.508;2023-07-16T02:12:56;11.55;;;3.25;;
72728;SDS011;60843;52.062;4.508;2023-07-16T02:15:22;7.38;;;2.42;;
72728;SDS011;60843;52.062;4.508;2023-07-16T02:17:47;11.10;;;3.23;;
72728;SDS011;60843;52.062;4.508;2023-07-16T02:20:13;12.27;;;3.38;;
72728;SDS011;60843;52.062;4.508;2023-07-16T02:22:39;6.68;;;3.08;;
72728;SDS011;60843;52.062;4.508;2023-07-16T02:25:04;7.05;;;2.60;;
72728;SDS011;60843;52.062;4.508;2023-07-16T02:27:30;8.65;;;2.83;;
72728;SDS011;60843;52.062;4.508;2023-07-16T02:29:56;13.98;;;3.72;;
72728;SDS011;60843;52.062;4.508;2023-07-16T02:32:21;8.82;;;3.15;;
72728;SDS011;60843;52.062;4.508;2023-07-16T02:34:47;8.85;;;2.70;;
72728;SDS011;60843;52.062;4.508;2023-07-16T02:37:12;7.88;;;3.22;;
72728;SDS011;60843;52.062;4.508;2023-07-16T02:39:41;11.23;;;3.42;;
72728;SDS011;60843;52.062;4.508;2023-07-16T02:42:07;12.60;;;3.42;;
72728;SDS011;60843;52.062;4.508;2023-07-16T02:44:32;11.50;;;4.07;;
72728;SDS011;60843;52.062;4.508;2023-07-16T02:46:58;10.43;;;3.38;;
72728;SDS011;60843;52.062;4.508;2023-07-16T02:49:23;8.52;;;3.25;;
72728;SDS011;60843;52.062;4.508;2023-07-16T02:51:49;8.18;;;3.70;;
72728;SDS011;60843;52.062;4.508;2023-07-16T02:54:14;6.57;;;2.70;;
72728;SDS011;60843;52.062;4.508;2023-07-16T02:56:40;10.00;;;3.20;;
72728;SDS011;60843;52.062;4.508;2023-07-16T02:59:05;9.23;;;3.28;;
72728;SDS011;60843;52.062;4.508;2023-07-16T03:01:31;7.13;;;2.90;;
72728;SDS011;60843;52.062;4.508;2023-07-16T03:03:56;8.88;;;3.03;;
72728;SDS011;60843;52.062;4.508;2023-07-16T03:06:21;8.30;;;2.65;;
72728;SDS011;60843;52.062;4.508;2023-07-16T03:08:47;11.10;;;3.00;;
72728;SDS011;60843;52.062;4.508;2023-07-16T03:11:13;8.23;;;2.45;;
72728;SDS011;60843;52.062;4.508;2023-07-16T03:13:38;7.15;;;2.45;;
72728;SDS011;60843;52.062;4.508;2023-07-16T03:16:04;8.13;;;2.90;;
72728;SDS011;60843;52.062;4.508;2023-07-16T03:18:29;11.10;;;2.47;;
72728;SDS011;60843;52.062;4.508;2023-07-16T03:20:56;9.57;;;2.13;;
72728;SDS011;60843;52.062;4.508;2023-07-16T03:23:22;6.93;;;2.67;;
72728;SDS011;60843;52.062;4.508;2023-07-16T03:25:47;4.78;;;1.88;;
72728;SDS011;60843;52.062;4.508;2023-07-16T03:28:13;9.10;;;2.70;;
72728;SDS011;60843;52.062;4.508;2023-07-16T03:30:38;8.20;;;1.73;;
72728;SDS011;60843;52.062;4.508;2023-07-16T03:33:04;6.55;;;2.78;;
72728;SDS011;60843;52.062;4.508;2023-07-16T03:35:30;10.73;;;2.35;;
72728;SDS011;60843;52.062;4.508;2023-07-16T03:37:56;11.57;;;2.42;;
72728;SDS011;60843;52.062;4.508;2023-07-16T03:40:25;11.02;;;2.70;;
72728;SDS011;60843;52.062;4.508;2023-07-16T03:42:51;6.22;;;2.80;;
72728;SDS011;60843;52.062;4.508;2023-07-16T03:45:17;10.73;;;2.95;;
72728;SDS011;60843;52.062;4.508;2023-07-16T03:47:43;7.13;;;2.58;;
72728;SDS011;60843;52.062;4.508;2023-07-16T03:50:09;8.52;;;2.15;;
72728;SDS011;60843;52.062;4.508;2023-07-16T03:52:34;9.45;;;2.15;;
72728;SDS011;60843;52.062;4.508;2023-07-16T03:55:00;7.97;;;3.10;;
72728;SDS011;60843;52.062;4.508;2023-07-16T03:57:27;7.85;;;2.50;;
72728;SDS011;60843;52.062;4.508;2023-07-16T03:59:53;8.20;;;2.75;;
72728;SDS011;60843;52.062;4.508;2023-07-16T04:02:18;6.93;;;2.70;;
72728;SDS011;60843;52.062;4.508;2023-07-16T04:04:43;10.65;;;3.05;;
72728;SDS011;60843;52.062;4.508;2023-07-16T04:07:09;10.03;;;3.00;;
72728;SDS011;60843;52.062;4.508;2023-07-16T04:09:36;7.13;;;2.10;;
72728;SDS011;60843;52.062;4.508;2023-07-16T04:12:03;9.50;;;2.67;;
72728;SDS011;60843;52.062;4.508;2023-07-16T04:14:29;8.93;;;3.05;;
72728;SDS011;60843;52.062;4.508;2023-07-16T04:16:55;10.38;;;3.47;;
72728;SDS011;60843;52.062;4.508;2023-07-16T04:19:20;7.78;;;3.08;;
72728;SDS011;60843;52.062;4.508;2023-07-16T04:21:46;7.57;;;2.85;;
72728;SDS011;60843;52.062;4.508;2023-07-16T04:24:11;6.88;;;2.60;;
72728;SDS011;60843;52.062;4.508;2023-07-16T04:26:36;8.63;;;3.30;;
72728;SDS011;60843;52.062;4.508;2023-07-16T04:29:02;8.55;;;2.72;;
72728;SDS011;60843;52.062;4.508;2023-07-16T04:31:27;8.70;;;2.85;;
72728;SDS011;60843;52.062;4.508;2023-07-16T04:33:53;7.93;;;2.30;;
72728;SDS011;60843;52.062;4.508;2023-07-16T04:36:18;7.03;;;3.57;;
72728;SDS011;60843;52.062;4.508;2023-07-16T04:38:43;9.27;;;2.90;;
72728;SDS011;60843;52.062;4.508;2023-07-16T04:41:09;5.90;;;3.17;;
72728;SDS011;60843;52.062;4.508;2023-07-16T04:43:34;9.15;;;3.00;;
72728;SDS011;60843;52.062;4.508;2023-07-16T04:46:11;9.35;;;2.95;;
72728;SDS011;60843;52.062;4.508;2023-07-16T04:48:37;10.63;;;3.03;;
72728;SDS011;60843;52.062;4.508;2023-07-16T04:51:05;9.70;;;3.20;;
72728;SDS011;60843;52.062;4.508;2023-07-16T04:55:56;11.83;;;2.77;;
72728;SDS011;60843;52.062;4.508;2023-07-16T04:58:22;10.07;;;2.95;;
72728;SDS011;60843;52.062;4.508;2023-07-16T05:00:47;13.35;;;3.17;;
72728;SDS011;60843;52.062;4.508;2023-07-16T05:03:13;9.98;;;2.80;;
72728;SDS011;60843;52.062;4.508;2023-07-16T05:05:38;8.05;;;2.75;;
72728;SDS011;60843;52.062;4.508;2023-07-16T05:08:04;6.88;;;2.72;;
72728;SDS011;60843;52.062;4.508;2023-07-16T05:10:29;6.13;;;2.83;;
72728;SDS011;60843;52.062;4.508;2023-07-16T05:12:55;7.70;;;2.72;;
72728;SDS011;60843;52.062;4.508;2023-07-16T05:15:20;7.25;;;2.40;;
72728;SDS011;60843;52.062;4.508;2023-07-16T05:17:45;7.13;;;2.87;;
72728;SDS011;60843;52.062;4.508;2023-07-16T05:20:11;11.20;;;3.70;;
72728;SDS011;60843;52.062;4.508;2023-07-16T05:22:36;7.38;;;2.88;;
72728;SDS011;60843;52.062;4.508;2023-07-16T05:25:02;6.38;;;2.22;;
72728;SDS011;60843;52.062;4.508;2023-07-16T05:27:28;8.07;;;2.50;;
72728;SDS011;60843;52.062;4.508;2023-07-16T05:29:54;7.60;;;2.70;;
72728;SDS011;60843;52.062;4.508;2023-07-16T05:32:19;6.50;;;2.28;;
72728;SDS011;60843;52.062;4.508;2023-07-16T05:34:45;11.50;;;3.05;;
72728;SDS011;60843;52.062;4.508;2023-07-16T05:37:11;8.02;;;2.65;;
72728;SDS011;60843;52.062;4.508;2023-07-16T05:39:37;6.28;;;2.53;;
72728;SDS011;60843;52.062;4.508;2023-07-16T05:42:02;8.52;;;2.55;;
72728;SDS011;60843;52.062;4.508;2023-07-16T05:44:28;7.80;;;2.80;;
72728;SDS011;60843;52.062;4.508;2023-07-16T05:46:54;8.85;;;2.63;;
72728;SDS011;60843;52.062;4.508;2023-07-16T05:49:19;7.30;;;2.63;;
72728;SDS011;60843;52.062;4.508;2023-07-16T05:51:45;9.65;;;2.83;;
72728;SDS011;60843;52.062;4.508;2023-07-16T05:54:10;9.98;;;2.97;;
72728;SDS011;60843;52.062;4.508;2023-07-16T05:56:36;8.20;;;2.28;;
72728;SDS011;60843;52.062;4.508;2023-07-16T05:59:01;8.70;;;3.05;;
72728;SDS011;60843;52.062;4.508;2023-07-16T06:01:27;10.32;;;2.85;;
72728;SDS011;60843;52.062;4.508;2023-07-16T06:03:52;12.52;;;3.20;;
72728;SDS011;60843;52.062;4.508;2023-07-16T06:06:19;11.98;;;3.25;;
72728;SDS011;60843;52.062;4.508;2023-07-16T06:08:44;7.95;;;2.97;;
72728;SDS011;60843;52.062;4.508;2023-07-16T06:11:10;8.23;;;2.92;;
72728;SDS011;60843;52.062;4.508;2023-07-16T06:13:35;6.28;;;2.90;;
72728;SDS011;60843;52.062;4.508;2023-07-16T06:16:01;12.57;;;3.47;;
72728;SDS011;60843;52.062;4.508;2023-07-16T06:18:26;7.82;;;3.00;;
72728;SDS011;60843;52.062;4.508;2023-07-16T06:20:52;7.83;;;2.67;;
72728;SDS011;60843;52.062;4.508;2023-07-16T06:23:18;7.43;;;3.08;;
72728;SDS011;60843;52.062;4.508;2023-07-16T06:25:43;7.88;;;3.13;;
72728;SDS011;60843;52.062;4.508;2023-07-16T06:28:09;9.07;;;2.92;;
72728;SDS011;60843;52.062;4.508;2023-07-16T06:30:36;5.72;;;2.78;;
72728;SDS011;60843;52.062;4.508;2023-07-16T06:33:02;9.07;;;3.28;;
72728;SDS011;60843;52.062;4.508;2023-07-16T06:35:27;7.30;;;3.03;;
72728;SDS011;60843;52.062;4.508;2023-07-16T06:37:53;8.27;;;2.60;;
72728;SDS011;60843;52.062;4.508;2023-07-16T06:40:18;10.47;;;2.63;;
72728;SDS011;60843;52.062;4.508;2023-07-16T06:42:43;9.40;;;2.88;;
72728;SDS011;60843;52.062;4.508;2023-07-16T06:45:09;7.17;;;2.53;;
72728;SDS011;60843;52.062;4.508;2023-07-16T06:47:34;6.85;;;2.70;;
72728;SDS011;60843;52.062;4.508;2023-07-16T06:50:00;8.52;;;3.05;;
72728;SDS011;60843;52.062;4.508;2023-07-16T06:52:25;8.85;;;3.03;;
72728;SDS011;60843;52.062;4.508;2023-07-16T06:54:55;7.75;;;2.42;;
72728;SDS011;60843;52.062;4.508;2023-07-16T06:57:22;5.32;;;2.40;;
72728;SDS011;60843;52.062;4.508;2023-07-16T06:59:48;7.10;;;2.85;;
72728;SDS011;60843;52.062;4.508;2023-07-16T07:02:15;9.20;;;2.95;;
72728;SDS011;60843;52.062;4.508;2023-07-16T07:04:41;8.15;;;2.70;;
72728;SDS011;60843;52.062;4.508;2023-07-16T07:07:06;8.90;;;3.30;;
72728;SDS011;60843;52.062;4.508;2023-07-16T07:09:32;8.18;;;2.88;;
72728;SDS011;60843;52.062;4.508;2023-07-16T07:11:57;7.60;;;2.88;;
72728;SDS011;60843;52.062;4.508;2023-07-16T07:14:23;7.25;;;3.05;;
72728;SDS011;60843;52.062;4.508;2023-07-16T07:16:48;14.40;;;3.20;;
72728;SDS011;60843;52.062;4.508;2023-07-16T07:19:14;9.23;;;3.50;;
72728;SDS011;60843;52.062;4.508;2023-07-16T07:21:39;6.85;;;2.90;;
72728;SDS011;60843;52.062;4.508;2023-07-16T07:24:05;7.30;;;3.00;;
72728;SDS011;60843;52.062;4.508;2023-07-16T07:26:30;7.93;;;2.92;;
72728;SDS011;60843;52.062;4.508;2023-07-16T07:28:56;7.57;;;2.83;;
72728;SDS011;60843;52.062;4.508;2023-07-16T07:31:21;9.55;;;3.17;;
72728;SDS011;60843;52.062;4.508;2023-07-16T07:33:46;6.75;;;2.80;;
72728;SDS011;60843;52.062;4.508;2023-07-16T07:36:12;6.13;;;2.25;;
72728;SDS011;60843;52.062;4.508;2023-07-16T07:38:37;9.23;;;3.35;;
72728;SDS011;60843;52.062;4.508;2023-07-16T07:41:04;9.80;;;3.15;;
72728;SDS011;60843;52.062;4.508;2023-07-16T07:43:30;9.23;;;3.13;;
72728;SDS011;60843;52.062;4.508;2023-07-16T07:45:56;10.13;;;3.13;;
72728;SDS011;60843;52.062;4.508;2023-07-16T07:48:21;6.70;;;2.80;;
72728;SDS011;60843;52.062;4.508;2023-07-16T07:50:47;6.72;;;2.83;;
72728;SDS011;60843;52.062;4.508;2023-07-16T07:53:12;7.65;;;2.83;;
72728;SDS011;60843;52.062;4.508;2023-07-16T07:55:39;7.03;;;2.97;;
72728;SDS011;60843;52.062;4.508;2023-07-16T07:58:06;10.80;;;2.92;;
72728;SDS011;60843;52.062;4.508;2023-07-16T08:00:32;5.78;;;2.53;;
72728;SDS011;60843;52.062;4.508;2023-07-16T08:02:57;11.20;;;3.42;;
72728;SDS011;60843;52.062;4.508;2023-07-16T08:05:23;8.23;;;2.72;;
72728;SDS011;60843;52.062;4.508;2023-07-16T08:07:48;7.43;;;3.10;;
72728;SDS011;60843;52.062;4.508;2023-07-16T08:10:14;4.72;;;2.17;;
72728;SDS011;60843;52.062;4.508;2023-07-16T08:12:39;7.30;;;2.50;;
72728;SDS011;60843;52.062;4.508;2023-07-16T08:15:05;7.57;;;3.30;;
72728;SDS011;60843;52.062;4.508;2023-07-16T08:17:32;6.28;;;2.55;;
72728;SDS011;60843;52.062;4.508;2023-07-16T08:19:57;7.60;;;2.40;;
72728;SDS011;60843;52.062;4.508;2023-07-16T08:22:23;12.05;;;4.55;;
72728;SDS011;60843;52.062;4.508;2023-07-16T08:24:50;11.38;;;2.72;;
72728;SDS011;60843;52.062;4.508;2023-07-16T08:27:16;5.32;;;2.17;;
72728;SDS011;60843;52.062;4.508;2023-07-16T08:29:43;7.18;;;2.25;;
72728;SDS011;60843;52.062;4.508;2023-07-16T08:32:09;7.47;;;2.63;;
72728;SDS011;60843;52.062;4.508;2023-07-16T08:34:34;7.75;;;2.45;;
72728;SDS011;60843;52.062;4.508;2023-07-16T08:37:00;7.45;;;2.70;;
72728;SDS011;60843;52.062;4.508;2023-07-16T08:39:25;6.90;;;2.70;;
72728;SDS011;60843;52.062;4.508;2023-07-16T08:41:51;7.60;;;2.17;;
72728;SDS011;60843;52.062;4.508;2023-07-16T08:44:17;13.48;;;2.70;;
72728;SDS011;60843;52.062;4.508;2023-07-16T08:46:42;11.70;;;2.25;;
72728;SDS011;60843;52.062;4.508;2023-07-16T08:49:07;12.13;;;3.10;;
72728;SDS011;60843;52.062;4.508;2023-07-16T08:51:34;10.13;;;2.75;;
72728;SDS011;60843;52.062;4.508;2023-07-16T08:54:00;11.75;;;3.63;;
72728;SDS011;60843;52.062;4.508;2023-07-16T08:56:26;7.22;;;2.35;;
72728;SDS011;60843;52.062;4.508;2023-07-16T08:58:53;8.45;;;2.65;;
72728;SDS011;60843;52.062;4.508;2023-07-16T09:01:21;8.20;;;3.00;;
72728;SDS011;60843;52.062;4.508;2023-07-16T09:03:46;11.45;;;3.35;;
72728;SDS011;60843;52.062;4.508;2023-07-16T09:06:11;10.35;;;2.60;;
72728;SDS011;60843;52.062;4.508;2023-07-16T09:08:37;9.37;;;3.03;;
72728;SDS011;60843;52.062;4.508;2023-07-16T09:11:02;6.53;;;2.53;;
72728;SDS011;60843;52.062;4.508;2023-07-16T09:13:28;8.18;;;2.35;;
72728;SDS011;60843;52.062;4.508;2023-07-16T09:15:54;6.88;;;2.95;;
72728;SDS011;60843;52.062;4.508;2023-07-16T09:18:21;8.95;;;2.72;;
72728;SDS011;60843;52.062;4.508;2023-07-16T09:20:48;6.82;;;2.28;;
72728;SDS011;60843;52.062;4.508;2023-07-16T09:23:18;9.63;;;3.10;;
72728;SDS011;60843;52.062;4.508;2023-07-16T09:25:44;6.43;;;2.40;;
72728;SDS011;60843;52.062;4.508;2023-07-16T09:28:09;8.27;;;2.58;;
72728;SDS011;60843;52.062;4.508;2023-07-16T09:30:35;8.00;;;2.55;;
72728;SDS011;60843;52.062;4.508;2023-07-16T09:33:09;5.57;;;1.93;;
72728;SDS011;60843;52.062;4.508;2023-07-16T09:35:35;7.60;;;2.28;;
72728;SDS011;60843;52.062;4.508;2023-07-16T09:38:01;8.35;;;2.33;;
72728;SDS011;60843;52.062;4.508;2023-07-16T09:40:27;6.85;;;2.25;;
72728;SDS011;60843;52.062;4.508;2023-07-16T09:42:53;8.48;;;2.38;;
72728;SDS011;60843;52.062;4.508;2023-07-16T09:45:19;11.45;;;2.40;;
72728;SDS011;60843;52.062;4.508;2023-07-16T09:47:45;5.25;;;2.05;;
72728;SDS011;60843;52.062;4.508;2023-07-16T09:50:10;6.10;;;2.10;;
72728;SDS011;60843;52.062;4.508;2023-07-16T09:52:36;6.07;;;2.08;;
72728;SDS011;60843;52.062;4.508;2023-07-16T09:55:03;9.25;;;1.98;;
72728;SDS011;60843;52.062;4.508;2023-07-16T09:57:30;10.50;;;2.95;;
72728;SDS011;60843;52.062;4.508;2023-07-16T10:00:00;8.90;;;2.15;;
72728;SDS011;60843;52.062;4.508;2023-07-16T10:02:30;6.50;;;2.13;;
72728;SDS011;60843;52.062;4.508;2023-07-16T10:04:58;6.18;;;2.47;;
72728;SDS011;60843;52.062;4.508;2023-07-16T10:07:24;8.18;;;2.50;;
72728;SDS011;60843;52.062;4.508;2023-07-16T10:09:52;5.07;;;2.28;;
72728;SDS011;60843;52.062;4.508;2023-07-16T10:12:22;3.65;;;1.80;;
72728;SDS011;60843;52.062;4.508;2023-07-16T10:14:52;3.35;;;1.75;;
72728;SDS011;60843;52.062;4.508;2023-07-16T10:17:19;4.38;;;1.50;;
72728;SDS011;60843;52.062;4.508;2023-07-16T10:19:50;4.80;;;1.50;;
72728;SDS011;60843;52.062;4.508;2023-07-16T10:22:31;6.30;;;1.60;;
72728;SDS011;60843;52.062;4.508;2023-07-16T10:24:58;3.42;;;1.02;;
72728;SDS011;60843;52.062;4.508;2023-07-16T10:27:30;3.67;;;1.13;;
72728;SDS011;60843;52.062;4.508;2023-07-16T10:29:57;2.70;;;0.95;;
72728;SDS011;60843;52.062;4.508;2023-07-16T10:32:25;6.43;;;1.42;;
72728;SDS011;60843;52.062;4.508;2023-07-16T10:34:53;5.15;;;1.42;;
72728;SDS011;60843;52.062;4.508;2023-07-16T10:37:18;12.05;;;1.60;;
72728;SDS011;60843;52.062;4.508;2023-07-16T10:39:47;2.15;;;0.70;;
72728;SDS011;60843;52.062;4.508;2023-07-16T10:42:13;3.38;;;1.30;;
72728;SDS011;60843;52.062;4.508;2023-07-16T10:44:41;4.22;;;1.15;;
72728;SDS011;60843;52.062;4.508;2023-07-16T10:47:07;7.15;;;1.20;;
72728;SDS011;60843;52.062;4.508;2023-07-16T10:49:32;4.18;;;1.48;;
72728;SDS011;60843;52.062;4.508;2023-07-16T10:52:01;3.65;;;1.30;;
72728;SDS011;60843;52.062;4.508;2023-07-16T10:54:27;4.35;;;1.10;;
72728;SDS011;60843;52.062;4.508;2023-07-16T10:56:52;9.40;;;1.27;;
72728;SDS011;60843;52.062;4.508;2023-07-16T10:59:18;7.18;;;1.65;;
72728;SDS011;60843;52.062;4.508;2023-07-16T11:01:44;5.80;;;1.02;;
72728;SDS011;60843;52.062;4.508;2023-07-16T11:04:09;5.47;;;1.02;;
72728;SDS011;60843;52.062;4.508;2023-07-16T11:06:35;6.53;;;1.00;;
72728;SDS011;60843;52.062;4.508;2023-07-16T11:09:10;4.75;;;1.00;;
72728;SDS011;60843;52.062;4.508;2023-07-16T11:11:36;5.20;;;1.05;;
72728;SDS011;60843;52.062;4.508;2023-07-16T11:14:05;4.72;;;1.60;;
72728;SDS011;60843;52.062;4.508;2023-07-16T11:16:34;10.10;;;1.40;;
72728;SDS011;60843;52.062;4.508;2023-07-16T11:19:01;3.92;;;1.33;;
72728;SDS011;60843;52.062;4.508;2023-07-16T11:21:29;7.55;;;1.55;;
72728;SDS011;60843;52.062;4.508;2023-07-16T11:23:54;7.43;;;1.20;;
72728;SDS011;60843;52.062;4.508;2023-07-16T11:26:20;3.83;;;1.10;;
72728;SDS011;60843;52.062;4.508;2023-07-16T11:28:45;5.03;;;1.17;;
72728;SDS011;60843;52.062;4.508;2023-07-16T11:31:14;3.22;;;0.90;;
72728;SDS011;60843;52.062;4.508;2023-07-16T11:33:46;6.43;;;1.70;;
72728;SDS011;60843;52.062;4.508;2023-07-16T11:36:12;2.90;;;0.80;;
72728;SDS011;60843;52.062;4.508;2023-07-16T11:38:38;8.73;;;1.13;;
72728;SDS011;60843;52.062;4.508;2023-07-16T11:41:04;2.67;;;0.90;;
72728;SDS011;60843;52.062;4.508;2023-07-16T11:43:33;3.13;;;0.88;;
72728;SDS011;60843;52.062;4.508;2023-07-16T11:46:00;5.70;;;0.90;;
72728;SDS011;60843;52.062;4.508;2023-07-16T11:48:25;8.63;;;1.10;;
72728;SDS011;60843;52.062;4.508;2023-07-16T11:50:51;8.38;;;1.13;;
72728;SDS011;60843;52.062;4.508;2023-07-16T11:53:16;5.77;;;1.03;;
72728;SDS011;60843;52.062;4.508;2023-07-16T11:55:42;2.90;;;0.80;;
72728;SDS011;60843;52.062;4.508;2023-07-16T11:58:07;4.80;;;1.17;;
72728;SDS011;60843;52.062;4.508;2023-07-16T12:00:33;3.58;;;0.90;;
72728;SDS011;60843;52.062;4.508;2023-07-16T12:02:59;4.35;;;1.20;;
72728;SDS011;60843;52.062;4.508;2023-07-16T12:05:24;5.38;;;0.80;;
72728;SDS011;60843;52.062;4.508;2023-07-16T12:07:51;4.72;;;0.80;;
72728;SDS011;60843;52.062;4.508;2023-07-16T12:10:17;6.90;;;1.40;;
72728;SDS011;60843;52.062;4.508;2023-07-16T12:12:42;6.32;;;1.02;;
72728;SDS011;60843;52.062;4.508;2023-07-16T12:15:08;7.00;;;1.10;;
72728;SDS011;60843;52.062;4.508;2023-07-16T12:17:34;6.18;;;1.10;;
72728;SDS011;60843;52.062;4.508;2023-07-16T12:20:00;9.70;;;1.63;;
72728;SDS011;60843;52.062;4.508;2023-07-16T12:22:26;11.25;;;1.60;;
72728;SDS011;60843;52.062;4.508;2023-07-16T12:24:52;7.28;;;1.10;;
72728;SDS011;60843;52.062;4.508;2023-07-16T12:27:18;4.80;;;0.98;;
72728;SDS011;60843;52.062;4.508;2023-07-16T12:29:44;4.97;;;1.17;;
72728;SDS011;60843;52.062;4.508;2023-07-16T12:32:09;8.57;;;1.48;;
72728;SDS011;60843;52.062;4.508;2023-07-16T12:34:35;5.25;;;1.00;;
72728;SDS011;60843;52.062;4.508;2023-07-16T12:37:00;8.70;;;1.30;;
72728;SDS011;60843;52.062;4.508;2023-07-16T12:39:26;5.13;;;1.15;;
72728;SDS011;60843;52.062;4.508;2023-07-16T12:41:51;5.88;;;0.82;;
72728;SDS011;60843;52.062;4.508;2023-07-16T12:44:17;5.47;;;0.70;;
72728;SDS011;60843;52.062;4.508;2023-07-16T12:46:42;5.47;;;1.00;;
72728;SDS011;60843;52.062;4.508;2023-07-16T12:49:08;4.57;;;1.10;;
72728;SDS011;60843;52.062;4.508;2023-07-16T12:51:33;4.85;;;1.30;;
72728;SDS011;60843;52.062;4.508;2023-07-16T12:53:58;4.40;;;0.70;;
72728;SDS011;60843;52.062;4.508;2023-07-16T12:56:25;8.38;;;1.52;;
72728;SDS011;60843;52.062;4.508;2023-07-16T12:58:51;4.60;;;0.85;;
72728;SDS011;60843;52.062;4.508;2023-07-16T13:01:17;8.23;;;1.08;;
72728;SDS011;60843;52.062;4.508;2023-07-16T13:03:42;5.70;;;1.05;;
72728;SDS011;60843;52.062;4.508;2023-07-16T13:06:08;8.30;;;1.10;;
72728;SDS011;60843;52.062;4.508;2023-07-16T13:08:33;6.57;;;1.10;;
72728;SDS011;60843;52.062;4.508;2023-07-16T13:11:00;5.07;;;0.93;;
72728;SDS011;60843;52.062;4.508;2023-07-16T13:13:25;5.60;;;1.27;;
72728;SDS011;60843;52.062;4.508;2023-07-16T13:15:51;4.72;;;1.10;;
72728;SDS011;60843;52.062;4.508;2023-07-16T13:18:16;7.27;;;1.23;;
72728;SDS011;60843;52.062;4.508;2023-07-16T13:20:43;8.07;;;1.02;;
72728;SDS011;60843;52.062;4.508;2023-07-16T13:23:08;6.05;;;1.10;;
72728;SDS011;60843;52.062;4.508;2023-07-16T13:25:34;6.85;;;0.82;;
72728;SDS011;60843;52.062;4.508;2023-07-16T13:28:01;7.32;;;1.35;;
72728;SDS011;60843;52.062;4.508;2023-07-16T13:30:27;6.53;;;1.38;;
72728;SDS011;60843;52.062;4.508;2023-07-16T13:32:53;8.87;;;1.80;;
72728;SDS011;60843;52.062;4.508;2023-07-16T13:37:46;6.05;;;0.95;;
72728;SDS011;60843;52.062;4.508;2023-07-16T13:40:12;6.43;;;1.20;;
72728;SDS011;60843;52.062;4.508;2023-07-16T13:42:37;12.77;;;1.52;;
72728;SDS011;60843;52.062;4.508;2023-07-16T13:45:03;10.70;;;1.70;;
72728;SDS011;60843;52.062;4.508;2023-07-16T13:47:30;7.78;;;1.33;;
72728;SDS011;60843;52.062;4.508;2023-07-16T13:49:55;5.65;;;1.15;;
72728;SDS011;60843;52.062;4.508;2023-07-16T13:52:21;8.10;;;0.95;;
72728;SDS011;60843;52.062;4.508;2023-07-16T13:54:47;5.03;;;1.00;;
72728;SDS011;60843;52.062;4.508;2023-07-16T13:57:13;8.50;;;1.00;;
72728;SDS011;60843;52.062;4.508;2023-07-16T13:59:38;6.90;;;1.15;;
72728;SDS011;60843;52.062;4.508;2023-07-16T14:02:04;4.80;;;0.70;;
72728;SDS011;60843;52.062;4.508;2023-07-16T14:04:30;4.50;;;1.20;;
72728;SDS011;60843;52.062;4.508;2023-07-16T14:06:55;4.33;;;0.90;;
72728;SDS011;60843;52.062;4.508;2023-07-16T14:09:21;5.70;;;1.10;;
72728;SDS011;60843;52.062;4.508;2023-07-16T14:11:47;5.55;;;1.08;;
72728;SDS011;60843;52.062;4.508;2023-07-16T14:14:16;6.35;;;1.23;;
72728;SDS011;60843;52.062;4.508;2023-07-16T14:16:43;10.13;;;1.40;;
72728;SDS011;60843;52.062;4.508;2023-07-16T14:19:08;7.25;;;1.25;;
72728;SDS011;60843;52.062;4.508;2023-07-16T14:21:34;5.43;;;1.55;;
72728;SDS011;60843;52.062;4.508;2023-07-16T14:24:00;9.55;;;2.08;;
72728;SDS011;60843;52.062;4.508;2023-07-16T14:26:26;10.13;;;1.00;;
72728;SDS011;60843;52.062;4.508;2023-07-16T14:28:51;10.95;;;1.45;;
72728;SDS011;60843;52.062;4.508;2023-07-16T14:31:17;4.38;;;1.17;;
72728;SDS011;60843;52.062;4.508;2023-07-16T14:33:43;4.65;;;0.80;;
72728;SDS011;60843;52.062;4.508;2023-07-16T14:36:08;11.98;;;1.60;;
72728;SDS011;60843;52.062;4.508;2023-07-16T14:38:35;7.63;;;1.38;;
72728;SDS011;60843;52.062;4.508;2023-07-16T14:41:00;7.13;;;1.27;;
72728;SDS011;60843;52.062;4.508;2023-07-16T14:43:26;5.72;;;1.15;;
72728;SDS011;60843;52.062;4.508;2023-07-16T14:45:51;5.33;;;1.07;;
72728;SDS011;60843;52.062;4.508;2023-07-16T14:48:17;6.03;;;1.17;;
72728;SDS011;60843;52.062;4.508;2023-07-16T14:50:42;8.73;;;1.25;;